Enid, OK (73701)

2:43 PM CDT on September 03, 2015 (GMT -0500)
old post road | | Change Station
CLOSE
Current Station
Personal Weather Station
Location: Enid, OK
Elevation: 1306 ft
Nearby Weather Stations

Elev 1306 ft 36.42 °N, 97.91 °W | Updated 3 minutes ago

Partly Cloudy
Partly Cloudy
96.4 °F
Feels Like 102 °F
N
2.0
Wind Variable Wind from NNE
Gusts 8.0 mph

Today
High -- | Low -- °F
--% Chance of Precip.
Yesterday
High -- | Low -- °F
Precip. -- in
7:04 AM 7:56 PM
Waning Gibbous, 67% visible
Pressure 29.90 in
Visibility 10.0 miles
Clouds Scattered Clouds 15000 ft
Heat Index 102 °F
Dew Point 68 °F
Humidity 40%
Rainfall 0.00 in
Snow Depth Not available.
UV 8 out of 12
Pollen 10.20 out of 12
Air Quality Not available.
Flu Activity Not available.
METAR KWDG 031850Z 17019KT 10SM SCT150 35/17 A2990
Pressure 29.90 in
Visibility 10.0 miles
Clouds Scattered Clouds 15000 ft
Heat Index 102 °F
Dew Point 68 °F
Humidity 40%
Rainfall 0.00 in
Snow Depth Not available.
UV 8 out of 12
Pollen 10.20 out of 12
Air Quality Not available.
Flu Activity Not available.
METAR KWDG 031850Z 17019KT 10SM SCT150 35/17 A2990

10-Day Weather Forecast

×

Almanac

Astronomy

Sep. 03, 2015 Rise Set
Actual Time
Civil Twilight
Nautical Twilight
Astronomical Twilight
Moon
Length of Visible Light
Length of Day
Tomorrow will be .
, % of the Moon is Illuminated

Today's Extremes

State Highs State Lows

Community

WunderPhotos

Upload Photos

1,852,017 photos uploaded!

WunderBlogs® & News

Nearby

Air Quality

  Air Quality AQ Index Pollutant
Not available.

Snow Depth

Station Depth Elevation

Earthquake Activity

City Distance Mag. Time & Date
Minimum magnitude displayed is 2.5.

Coastal Water Temperatures

Place Temperature

Stations

Nearby Weather Stations

Station Location Temp. Windchill Dew Point Humidity Wind Precip. Elev Updated Type